createdAt,value
2018-07-23T00:02:24.283Z,3.53
2018-07-23T00:04:52.875Z,3.47
2018-07-23T00:07:21.217Z,3.93
2018-07-23T00:09:49.596Z,4.30
2018-07-23T00:12:17.928Z,3.50
2018-07-23T00:14:46.305Z,3.60
2018-07-23T00:17:14.651Z,3.80
2018-07-23T00:19:43.000Z,3.20
2018-07-23T00:22:11.354Z,3.50
2018-07-23T00:24:39.707Z,3.63
2018-07-23T00:27:08.283Z,3.63
2018-07-23T00:29:36.649Z,3.60
2018-07-23T00:32:04.720Z,3.87
2018-07-23T00:34:32.821Z,3.80
2018-07-23T00:37:01.157Z,3.97
2018-07-23T00:39:29.534Z,4.10
2018-07-23T00:41:57.870Z,4.10
2018-07-23T00:44:26.296Z,4.80
2018-07-23T00:46:54.627Z,4.07
2018-07-23T00:49:22.971Z,4.10
2018-07-23T00:51:51.061Z,3.93
2018-07-23T00:54:19.420Z,4.00
2018-07-23T00:56:47.751Z,3.63
2018-07-23T00:59:16.193Z,4.23
2018-07-23T01:01:44.520Z,4.00
2018-07-23T01:04:12.890Z,4.00
2018-07-23T01:06:41.240Z,3.90
2018-07-23T01:09:10.751Z,4.50
2018-07-23T01:11:39.163Z,3.73
2018-07-23T01:14:07.784Z,4.10
2018-07-23T01:16:36.133Z,3.57
2018-07-23T01:19:04.532Z,4.00
2018-07-23T01:21:32.900Z,3.60
2018-07-23T01:24:01.236Z,4.00
2018-07-23T01:26:29.604Z,3.87
2018-07-23T01:28:57.952Z,4.10
2018-07-23T01:31:26.328Z,4.70
2018-07-23T01:33:54.656Z,3.77
2018-07-23T01:36:23.015Z,4.37
2018-07-23T01:38:51.351Z,4.17
2018-07-23T01:41:19.712Z,4.50
2018-07-23T01:43:48.050Z,4.50
2018-07-23T01:46:16.411Z,4.27
2018-07-23T01:48:44.742Z,4.57
2018-07-23T01:51:13.103Z,5.00
2018-07-23T01:53:41.503Z,4.63
2018-07-23T01:56:09.860Z,4.20
2018-07-23T01:58:38.275Z,4.53
2018-07-23T02:01:10.208Z,4.80
2018-07-23T02:03:39.373Z,4.40
2018-07-23T02:06:08.260Z,4.53
2018-07-23T02:08:36.604Z,4.57
2018-07-23T02:11:05.884Z,5.00
2018-07-23T02:13:34.268Z,4.63
2018-07-23T02:16:02.673Z,4.53
2018-07-23T02:18:31.330Z,4.10
2018-07-23T02:20:59.728Z,4.50
2018-07-23T02:23:28.076Z,5.13
2018-07-23T02:25:56.455Z,4.73
2018-07-23T02:28:24.789Z,5.10
2018-07-23T02:30:53.152Z,5.10
2018-07-23T02:33:21.508Z,4.93
2018-07-23T02:35:49.876Z,5.47
2018-07-23T02:38:18.211Z,4.83
2018-07-23T02:40:46.589Z,4.80
2018-07-23T02:43:14.927Z,4.93
2018-07-23T02:45:43.309Z,4.73
2018-07-23T02:48:11.632Z,5.00
2018-07-23T02:50:39.996Z,5.27
2018-07-23T02:53:08.600Z,5.20
2018-07-23T02:55:36.972Z,5.23
2018-07-23T02:58:05.304Z,5.20
2018-07-23T03:00:33.702Z,5.23
2018-07-23T03:03:02.057Z,5.10
2018-07-23T03:05:30.423Z,5.03
2018-07-23T03:07:58.492Z,5.13
2018-07-23T03:10:26.575Z,4.73
2018-07-23T03:12:54.925Z,5.37
2018-07-23T03:15:23.300Z,5.17
2018-07-23T03:17:51.668Z,5.33
2018-07-23T03:20:20.019Z,5.27
2018-07-23T03:22:48.377Z,5.50
2018-07-23T03:25:16.720Z,5.00
2018-07-23T03:27:45.071Z,4.93
2018-07-23T03:30:13.421Z,4.80
2018-07-23T03:32:41.792Z,4.70
2018-07-23T03:35:10.145Z,4.60
2018-07-23T03:37:38.495Z,4.57
2018-07-23T03:40:06.845Z,4.40
2018-07-23T03:42:35.211Z,4.80
2018-07-23T03:45:03.580Z,5.13
2018-07-23T03:47:31.952Z,4.90
2018-07-23T03:50:00.011Z,5.63
2018-07-23T03:52:28.372Z,5.73
2018-07-23T03:54:56.797Z,5.17
2018-07-23T03:57:25.158Z,5.37
2018-07-23T03:59:53.515Z,5.17
2018-07-23T04:02:21.884Z,5.10
2018-07-23T04:04:50.212Z,4.77
2018-07-23T04:07:18.563Z,5.13
2018-07-23T04:09:46.891Z,5.10
2018-07-23T04:12:15.270Z,5.30
2018-07-23T04:14:43.607Z,5.97
2018-07-23T04:17:12.014Z,5.47
2018-07-23T04:19:40.358Z,5.17
2018-07-23T04:22:08.720Z,5.50
2018-07-23T04:24:37.057Z,5.93
2018-07-23T04:27:05.452Z,5.63
2018-07-23T04:29:33.810Z,5.70
2018-07-23T04:32:02.182Z,5.37
2018-07-23T04:34:30.575Z,5.90
2018-07-23T04:36:58.937Z,5.83
2018-07-23T04:39:26.999Z,6.43
2018-07-23T04:41:55.351Z,6.30
2018-07-23T04:44:23.683Z,5.87
2018-07-23T04:46:52.064Z,6.10
2018-07-23T04:49:20.426Z,6.10
2018-07-23T04:51:48.787Z,5.93
2018-07-23T04:54:17.151Z,6.27
2018-07-23T04:56:45.539Z,6.57
2018-07-23T04:59:13.896Z,6.53
2018-07-23T05:01:42.252Z,6.47
2018-07-23T05:04:10.583Z,6.13
2018-07-23T05:06:38.935Z,6.80
2018-07-23T05:09:09.495Z,6.40
2018-07-23T05:11:37.860Z,6.73
2018-07-23T05:14:06.880Z,6.80
2018-07-23T05:16:35.248Z,6.53
2018-07-23T05:19:03.696Z,6.43
2018-07-23T05:21:32.038Z,6.23
2018-07-23T05:24:00.401Z,6.13
2018-07-23T05:26:28.855Z,5.83
2018-07-23T05:28:57.215Z,5.73
2018-07-23T05:31:25.541Z,6.40
2018-07-23T05:33:53.937Z,6.10
2018-07-23T05:36:22.291Z,6.00
2018-07-23T05:38:50.656Z,6.23
2018-07-23T05:41:18.987Z,6.43
2018-07-23T05:43:47.348Z,6.57
2018-07-23T05:46:15.407Z,6.77
2018-07-23T05:48:43.498Z,6.63
2018-07-23T05:51:11.567Z,6.30
2018-07-23T05:53:39.948Z,6.27
2018-07-23T05:56:08.016Z,6.17
2018-07-23T05:58:36.139Z,6.87
2018-07-23T06:01:04.492Z,6.20
2018-07-23T06:03:32.962Z,5.80
2018-07-23T06:06:01.296Z,5.00
2018-07-23T06:08:29.659Z,6.10
2018-07-23T06:10:58.035Z,6.33
2018-07-23T06:13:26.435Z,6.40
2018-07-23T06:15:54.768Z,5.83
2018-07-23T06:18:23.143Z,5.67
2018-07-23T06:20:51.507Z,6.10
2018-07-23T06:23:20.472Z,6.33
2018-07-23T06:25:48.825Z,5.67
2018-07-23T06:28:17.276Z,5.10
2018-07-23T06:30:45.629Z,5.47
2018-07-23T06:33:14.248Z,5.10
2018-07-23T06:35:42.596Z,4.70
2018-07-23T06:38:10.699Z,5.07
2018-07-23T06:40:39.024Z,5.43
2018-07-23T06:43:07.394Z,4.70
2018-07-23T06:45:35.735Z,4.77
2018-07-23T06:48:04.150Z,4.20
2018-07-23T06:50:32.561Z,4.07
2018-07-23T06:53:00.928Z,4.23
2018-07-23T06:55:29.319Z,3.67
2018-07-23T06:57:57.668Z,4.20
2018-07-23T07:00:26.092Z,3.20
2018-07-23T07:02:54.189Z,3.23
2018-07-23T07:05:22.529Z,3.20
2018-07-23T07:07:50.884Z,3.07
2018-07-23T07:10:19.206Z,2.83
2018-07-23T07:12:47.262Z,3.00
2018-07-23T07:15:15.616Z,3.10
2018-07-23T07:17:43.956Z,3.37
2018-07-23T07:20:12.325Z,3.23
2018-07-23T07:22:40.659Z,2.97
2018-07-23T07:25:09.033Z,3.80
2018-07-23T07:27:37.363Z,3.07
2018-07-23T07:30:06.884Z,3.10
2018-07-23T07:32:35.236Z,3.33
2018-07-23T07:35:03.355Z,3.33
2018-07-23T07:37:31.689Z,2.87
2018-07-23T07:39:59.762Z,2.87
2018-07-23T07:42:27.822Z,3.03
2018-07-23T07:44:56.187Z,3.50
2018-07-23T07:47:24.532Z,3.37
2018-07-23T07:49:52.902Z,3.37
2018-07-23T07:52:21.232Z,3.53
2018-07-23T07:54:49.647Z,3.53
2018-07-23T07:57:17.987Z,3.10
2018-07-23T07:59:46.368Z,3.43
2018-07-23T08:02:14.691Z,4.00
2018-07-23T08:04:43.067Z,3.50
2018-07-23T08:07:11.450Z,3.50
2018-07-23T08:09:39.518Z,3.53
2018-07-23T08:12:08.371Z,3.70
2018-07-23T08:14:36.725Z,3.93
2018-07-23T08:17:05.076Z,3.70
2018-07-23T08:19:33.424Z,4.20
2018-07-23T08:22:01.511Z,4.20
2018-07-23T08:24:29.865Z,3.67
2018-07-23T08:26:58.207Z,4.00
2018-07-23T08:29:26.577Z,4.47
2018-07-23T08:31:55.011Z,3.87
2018-07-23T08:34:23.303Z,4.60
2018-07-23T08:36:51.364Z,4.93
2018-07-23T08:39:19.731Z,4.10
2018-07-23T08:41:48.047Z,4.17
2018-07-23T08:44:16.392Z,4.23
2018-07-23T08:46:44.707Z,4.17
2018-07-23T08:49:13.055Z,3.97
2018-07-23T08:51:41.367Z,4.20
2018-07-23T08:54:09.720Z,3.77
2018-07-23T08:56:37.771Z,3.63
2018-07-23T08:59:06.147Z,3.90
2018-07-23T09:01:34.477Z,3.60
2018-07-23T09:04:02.829Z,4.50
2018-07-23T09:06:30.907Z,4.30
2018-07-23T09:08:58.959Z,4.53
2018-07-23T09:11:27.315Z,4.67
2018-07-23T09:13:55.655Z,4.63
2018-07-23T09:16:24.004Z,4.50
2018-07-23T09:18:52.326Z,4.67
2018-07-23T09:21:20.689Z,4.80
2018-07-23T09:23:49.147Z,4.27
2018-07-23T09:26:17.521Z,4.47
2018-07-23T09:28:45.919Z,4.90
2018-07-23T09:31:14.348Z,4.57
2018-07-23T09:33:42.780Z,3.92
2018-07-23T09:36:11.140Z,4.47
2018-07-23T09:38:39.464Z,4.40
2018-07-23T09:41:07.830Z,4.45
2018-07-23T09:43:36.159Z,4.45
2018-07-23T09:46:04.699Z,4.90
2018-07-23T09:48:33.028Z,4.62
2018-07-23T09:51:01.387Z,4.72
2018-07-23T09:53:29.744Z,5.42
2018-07-23T09:55:58.172Z,5.17
2018-07-23T09:58:26.653Z,5.37
2018-07-23T10:01:02.312Z,5.87
2018-07-23T10:03:30.929Z,5.35
2018-07-23T10:05:59.226Z,4.92
2018-07-23T10:08:27.616Z,4.78
2018-07-23T10:10:56.053Z,6.08
2018-07-23T10:13:24.476Z,5.53
2018-07-23T10:15:52.889Z,6.62
2018-07-23T10:18:21.342Z,5.08
2018-07-23T10:20:49.769Z,5.03
2018-07-23T10:23:18.136Z,5.30
2018-07-23T10:25:46.542Z,6.10
2018-07-23T10:28:14.938Z,5.83
2018-07-23T10:30:43.339Z,6.00
2018-07-23T10:33:11.760Z,4.87
2018-07-23T10:35:40.161Z,5.00
2018-07-23T10:38:08.546Z,5.10
2018-07-23T10:40:36.957Z,5.22
2018-07-23T10:43:05.386Z,4.72
2018-07-23T10:45:33.845Z,4.83
2018-07-23T10:48:02.304Z,5.35
2018-07-23T10:50:30.657Z,5.40
2018-07-23T10:52:58.983Z,5.28
2018-07-23T10:55:27.368Z,5.15
2018-07-23T10:57:55.724Z,5.05
2018-07-23T11:00:24.100Z,5.55
2018-07-23T11:02:52.478Z,5.87
2018-07-23T11:05:20.812Z,5.75
2018-07-23T11:07:48.915Z,6.35
2018-07-23T11:10:17.256Z,6.03
2018-07-23T11:12:45.614Z,6.45
2018-07-23T11:15:13.980Z,5.67
2018-07-23T11:17:42.336Z,6.22
2018-07-23T11:20:12.107Z,5.00
2018-07-23T11:22:40.828Z,5.87
2018-07-23T11:25:38.701Z,5.08
2018-07-23T11:27:37.575Z,5.60
2018-07-23T11:30:05.853Z,4.55
2018-07-23T11:34:56.555Z,5.00
2018-07-23T11:37:24.927Z,5.22
2018-07-23T11:39:53.272Z,4.67
2018-07-23T11:42:21.655Z,5.00
2018-07-23T11:44:49.995Z,4.90
2018-07-23T11:47:18.361Z,5.85
2018-07-23T11:49:46.705Z,5.12
2018-07-23T11:52:15.065Z,5.20
2018-07-23T11:54:43.613Z,5.28
2018-07-23T11:57:12.205Z,5.58
2018-07-23T11:59:41.700Z,4.87
2018-07-23T12:02:09.787Z,4.83
2018-07-23T12:04:38.269Z,4.85
2018-07-23T12:07:07.172Z,4.60
2018-07-23T12:09:35.511Z,5.45
2018-07-23T12:12:03.876Z,4.85
2018-07-23T12:14:32.340Z,4.80
2018-07-23T12:17:00.695Z,4.72
2018-07-23T12:19:29.024Z,4.70
2018-07-23T12:21:57.371Z,4.72
2018-07-23T12:24:25.710Z,4.85
2018-07-23T12:26:54.067Z,4.47
2018-07-23T12:29:22.401Z,4.72
2018-07-23T12:31:50.756Z,4.45
2018-07-23T12:34:19.109Z,4.67
2018-07-23T12:36:47.462Z,4.62
2018-07-23T12:39:15.794Z,4.15
2018-07-23T12:41:44.148Z,4.10
2018-07-23T12:44:12.481Z,4.17
2018-07-23T12:46:40.859Z,4.30
2018-07-23T12:49:09.260Z,4.30
2018-07-23T12:51:37.606Z,4.97
2018-07-23T12:54:05.979Z,4.28
2018-07-23T12:56:34.305Z,3.98
2018-07-23T12:59:02.691Z,4.42
2018-07-23T13:01:31.015Z,4.00
2018-07-23T13:03:59.367Z,3.65
2018-07-23T13:06:27.462Z,3.70
2018-07-23T13:08:55.843Z,3.65
2018-07-23T13:11:24.184Z,3.58
2018-07-23T13:13:52.588Z,3.83
2018-07-23T13:16:20.689Z,4.10
2018-07-23T13:18:49.049Z,3.98
2018-07-23T13:21:17.423Z,3.70
2018-07-23T13:23:45.512Z,3.80
2018-07-23T13:26:13.851Z,3.55
2018-07-23T13:28:42.247Z,3.80
2018-07-23T13:31:10.360Z,3.77
2018-07-23T13:33:38.756Z,3.42
2018-07-23T13:36:07.088Z,3.27
2018-07-23T13:38:35.163Z,3.37
2018-07-23T13:41:03.223Z,3.15
2018-07-23T13:43:31.370Z,3.52
2018-07-23T13:45:59.714Z,3.33
2018-07-23T13:48:28.076Z,3.50
2018-07-23T13:50:56.407Z,3.37
2018-07-23T13:53:24.775Z,3.27
2018-07-23T13:55:53.114Z,3.25
2018-07-23T13:58:21.523Z,3.67
2018-07-23T14:00:49.859Z,3.30
2018-07-23T14:03:17.951Z,3.15
2018-07-23T14:05:46.285Z,3.30
2018-07-23T14:08:14.640Z,3.30
2018-07-23T14:10:43.020Z,3.40
2018-07-23T14:13:11.439Z,3.27
2018-07-23T14:15:39.791Z,3.10
2018-07-23T14:18:08.154Z,3.22
2018-07-23T14:20:36.788Z,3.25
2018-07-23T14:23:05.180Z,3.00
2018-07-23T14:25:33.747Z,3.00
2018-07-23T14:28:02.099Z,3.17
2018-07-23T14:30:30.452Z,2.80
2018-07-23T14:32:58.832Z,3.20
2018-07-23T14:35:27.163Z,3.30
2018-07-23T14:37:55.484Z,2.72
2018-07-23T14:40:23.850Z,3.20
2018-07-23T14:42:52.237Z,3.00
2018-07-23T14:45:20.619Z,2.60
2018-07-23T14:47:48.940Z,2.62
2018-07-23T14:50:17.313Z,2.42
2018-07-23T14:52:45.639Z,2.95
2018-07-23T14:55:13.999Z,2.85
2018-07-23T14:57:42.394Z,2.58
2018-07-23T15:00:10.768Z,2.50
2018-07-23T15:02:39.103Z,2.52
2018-07-23T15:05:07.484Z,2.83
2018-07-23T15:07:35.809Z,2.67
2018-07-23T15:10:04.284Z,2.67
2018-07-23T15:12:32.608Z,2.40
2018-07-23T15:15:00.966Z,3.10
2018-07-23T15:17:29.300Z,2.67
2018-07-23T15:19:57.665Z,3.33
2018-07-23T15:22:25.991Z,2.50
2018-07-23T15:24:54.344Z,2.58
2018-07-23T15:27:22.724Z,2.58
2018-07-23T15:29:51.067Z,2.40
2018-07-23T15:32:19.401Z,2.40
2018-07-23T15:34:47.753Z,2.50
2018-07-23T15:37:16.098Z,2.33
2018-07-23T15:39:44.457Z,2.55
2018-07-23T15:42:12.531Z,2.30
2018-07-23T15:44:41.276Z,2.45
2018-07-23T15:47:09.235Z,2.42
2018-07-23T15:49:37.595Z,2.40
2018-07-23T15:52:05.964Z,2.55
2018-07-23T15:54:34.421Z,2.42
2018-07-23T15:57:02.471Z,2.50
2018-07-23T15:59:30.859Z,2.72
2018-07-23T16:01:59.191Z,2.50
2018-07-23T16:04:27.543Z,2.60
2018-07-23T16:06:55.867Z,2.85
2018-07-23T16:09:24.225Z,2.58
2018-07-23T16:11:52.575Z,2.80
2018-07-23T16:14:20.939Z,2.30
2018-07-23T16:16:49.007Z,2.70
2018-07-23T16:19:17.375Z,2.35
2018-07-23T16:21:45.703Z,2.62
2018-07-23T16:24:14.055Z,2.12
2018-07-23T16:26:42.416Z,2.52
2018-07-23T16:29:10.783Z,2.50
2018-07-23T16:31:39.149Z,2.80
2018-07-23T16:34:07.506Z,2.92
2018-07-23T16:36:35.880Z,2.70
2018-07-23T16:39:06.803Z,2.52
2018-07-23T16:41:35.156Z,2.80
2018-07-23T16:44:03.792Z,2.35
2018-07-23T16:46:32.155Z,2.40
2018-07-23T16:49:00.543Z,2.30
2018-07-23T16:51:28.940Z,2.42
2018-07-23T16:53:57.265Z,2.40
2018-07-23T16:56:25.632Z,2.35
2018-07-23T16:58:53.993Z,2.47
2018-07-23T17:01:22.383Z,2.60
2018-07-23T17:03:50.715Z,2.45
2018-07-23T17:06:19.068Z,2.40
2018-07-23T17:08:47.127Z,2.62
2018-07-23T17:11:15.493Z,2.42
2018-07-23T17:13:43.812Z,2.40
2018-07-23T17:16:12.338Z,2.52
2018-07-23T17:18:40.733Z,2.60
2018-07-23T17:21:09.483Z,2.47
2018-07-23T17:23:37.846Z,2.60
2018-07-23T17:26:06.243Z,2.50
2018-07-23T17:28:34.588Z,2.58
2018-07-23T17:31:03.198Z,2.47
2018-07-23T17:33:31.531Z,2.87
2018-07-23T17:35:59.893Z,2.52
2018-07-23T17:38:28.247Z,2.45
2018-07-23T17:40:56.617Z,2.60
2018-07-23T17:43:24.963Z,2.58
2018-07-23T17:45:53.333Z,2.92
2018-07-23T17:48:21.676Z,3.05
2018-07-23T17:50:50.045Z,2.85
2018-07-23T17:53:18.379Z,2.50
2018-07-23T17:55:46.779Z,2.30
2018-07-23T17:58:15.155Z,2.60
2018-07-23T18:00:43.275Z,2.58
2018-07-23T18:03:11.619Z,2.55
2018-07-23T18:05:39.714Z,2.80
2018-07-23T18:08:08.088Z,2.30
2018-07-23T18:10:36.457Z,2.70
2018-07-23T18:13:04.813Z,2.67
2018-07-23T18:15:33.180Z,2.50
2018-07-23T18:18:01.540Z,2.50
2018-07-23T18:20:29.913Z,2.75
2018-07-23T18:22:58.263Z,2.70
2018-07-23T18:25:26.623Z,2.90
2018-07-23T18:27:55.079Z,2.87
2018-07-23T18:30:23.455Z,2.90
2018-07-23T18:32:51.813Z,3.00
2018-07-23T18:35:20.135Z,2.98
2018-07-23T18:37:48.586Z,2.98
2018-07-23T18:40:16.582Z,3.05
2018-07-23T18:42:44.968Z,2.92
2018-07-23T18:45:13.315Z,3.00
2018-07-23T18:47:41.694Z,2.85
2018-07-23T18:50:10.070Z,3.27
2018-07-23T18:52:38.452Z,3.00
2018-07-23T18:55:06.791Z,2.95
2018-07-23T18:57:35.140Z,3.00
2018-07-23T19:00:03.320Z,2.95
2018-07-23T19:02:31.659Z,2.70
2018-07-23T19:04:59.991Z,3.15
2018-07-23T19:07:28.359Z,3.12
2018-07-23T19:09:56.426Z,3.60
2018-07-23T19:12:24.535Z,13.88
2018-07-23T19:14:52.871Z,6.03
2018-07-23T19:17:21.227Z,4.17
2018-07-23T19:19:49.573Z,3.33
2018-07-23T19:22:17.963Z,3.37
2018-07-23T19:24:46.284Z,3.25
2018-07-23T19:27:14.676Z,3.35
2018-07-23T19:29:42.998Z,3.50
2018-07-23T19:32:11.351Z,3.20
2018-07-23T19:34:39.675Z,3.30
2018-07-23T19:37:08.046Z,3.40
2018-07-23T19:39:36.370Z,3.20
2018-07-23T19:42:04.523Z,3.25
2018-07-23T19:44:32.803Z,3.05
2018-07-23T19:47:01.206Z,3.15
2018-07-23T19:49:29.262Z,3.17
2018-07-23T19:51:57.635Z,3.45
2018-07-23T19:54:25.976Z,3.15
2018-07-23T19:56:54.331Z,3.70
2018-07-23T19:59:22.710Z,3.12
2018-07-23T20:01:51.087Z,3.30
2018-07-23T20:04:19.416Z,3.60
2018-07-23T20:06:47.784Z,3.30
2018-07-23T20:09:16.120Z,3.60
2018-07-23T20:11:44.487Z,3.40
2018-07-23T20:14:12.606Z,3.67
2018-07-23T20:16:40.991Z,3.37
2018-07-23T20:19:09.319Z,3.90
2018-07-23T20:21:37.811Z,4.03
2018-07-23T20:24:06.223Z,4.65
2018-07-23T20:26:34.575Z,3.45
2018-07-23T20:29:02.951Z,3.75
2018-07-23T20:31:31.567Z,4.08
2018-07-23T20:33:59.948Z,3.40
2018-07-23T20:36:28.283Z,3.67
2018-07-23T20:38:56.403Z,4.03
2018-07-23T20:41:24.747Z,3.60
2018-07-23T20:43:53.269Z,3.80
2018-07-23T20:46:22.096Z,4.03
2018-07-23T20:48:50.478Z,3.80
2018-07-23T20:51:18.831Z,3.52
2018-07-23T20:53:47.207Z,3.65
2018-07-23T20:56:15.559Z,3.70
2018-07-23T20:58:43.916Z,4.00
2018-07-23T21:01:12.015Z,3.85
2018-07-23T21:03:40.392Z,3.92
2018-07-23T21:06:08.759Z,3.67
2018-07-23T21:08:36.842Z,3.45
2018-07-23T21:11:05.216Z,3.50
2018-07-23T21:13:33.563Z,3.58
2018-07-23T21:16:01.899Z,3.60
2018-07-23T21:18:30.255Z,3.50
2018-07-23T21:20:58.639Z,3.50
2018-07-23T21:23:27.060Z,4.47
2018-07-23T21:25:55.404Z,4.20
2018-07-23T21:28:24.664Z,3.92
2018-07-23T21:30:53.036Z,3.87
2018-07-23T21:33:21.463Z,3.65
2018-07-23T21:35:49.811Z,3.77
2018-07-23T21:38:17.907Z,4.20
2018-07-23T21:40:46.235Z,3.65
2018-07-23T21:43:14.595Z,4.30
2018-07-23T21:45:42.927Z,3.85
2018-07-23T21:48:11.034Z,3.58
2018-07-23T21:50:39.455Z,3.90
2018-07-23T21:53:07.823Z,3.77
2018-07-23T21:55:36.155Z,4.00
2018-07-23T21:58:04.571Z,4.10
2018-07-23T22:00:36.050Z,3.95
2018-07-23T22:03:04.392Z,3.90
2018-07-23T22:05:32.741Z,3.70
2018-07-23T22:08:01.120Z,4.17
2018-07-23T22:10:29.451Z,3.87
2018-07-23T22:12:57.782Z,4.50
2018-07-23T22:15:26.156Z,3.83
2018-07-23T22:17:54.504Z,4.17
2018-07-23T22:20:22.885Z,3.70
2018-07-23T22:22:51.220Z,4.20
2018-07-23T22:25:19.589Z,4.10
2018-07-23T22:27:48.065Z,3.90
2018-07-23T22:30:16.498Z,4.10
2018-07-23T22:32:44.791Z,4.10
2018-07-23T22:35:13.175Z,4.10
2018-07-23T22:37:41.238Z,4.37
2018-07-23T22:40:09.614Z,4.17
2018-07-23T22:42:37.952Z,4.07
2018-07-23T22:45:07.122Z,4.30
2018-07-23T22:47:35.472Z,4.20
2018-07-23T22:50:04.120Z,4.20
2018-07-23T22:52:32.591Z,4.00
2018-07-23T22:55:00.960Z,4.03
2018-07-23T22:57:29.329Z,4.17
2018-07-23T22:59:57.747Z,4.33
2018-07-23T23:02:26.121Z,4.00
2018-07-23T23:04:54.492Z,3.97
2018-07-23T23:07:22.844Z,4.20
2018-07-23T23:09:51.216Z,4.10
2018-07-23T23:12:19.555Z,4.10
2018-07-23T23:14:47.988Z,4.10
2018-07-23T23:17:16.340Z,4.30
2018-07-23T23:19:44.700Z,4.23
2018-07-23T23:22:13.068Z,4.27
2018-07-23T23:24:41.440Z,4.07
2018-07-23T23:27:11.239Z,4.17
2018-07-23T23:29:39.605Z,4.13
2018-07-23T23:32:07.955Z,4.03
2018-07-23T23:34:36.313Z,4.47
2018-07-23T23:37:04.656Z,4.77
2018-07-23T23:39:33.016Z,4.50
2018-07-23T23:42:01.343Z,4.20
2018-07-23T23:44:29.717Z,4.40
2018-07-23T23:46:58.084Z,4.27
2018-07-23T23:49:26.456Z,4.50
2018-07-23T23:51:54.851Z,4.10
2018-07-23T23:54:23.196Z,4.50
2018-07-23T23:56:51.578Z,3.57
2018-07-23T23:59:19.935Z,3.87
